Time,TemperatureF,DewpointF,PressureIn,WindDirection,WindDirectionDegrees,WindSpeedMPH,WindSpeedGustMPH,Humidity,HourlyPrecipIn,Conditions,Clouds,dailyrainin,SoftwareType,DateUTC
2013-04-28 00:05:00,66.3,63.6,29.97,ESE,104,2.0,6.0,91,0.00,,,0.00,Wunderground v.1.15,2013-04-28 05:05:00,
2013-04-28 00:10:00,66.1,63.4,29.97,ESE,104,1.0,1.0,91,0.00,,,0.00,Wunderground v.1.15,2013-04-28 05:10:00,
2013-04-28 00:15:00,66.1,63.4,29.97,ESE,104,1.0,1.0,91,0.00,,,0.00,Wunderground v.1.15,2013-04-28 05:15:00,
2013-04-28 00:20:00,66.1,63.4,29.97,ESE,104,0.0,0.0,91,0.00,,,0.00,Wunderground v.1.15,2013-04-28 05:20:00,
2013-04-28 00:25:00,66.1,63.4,29.96,ESE,104,0.0,0.0,91,0.00,,,0.00,Wunderground v.1.15,2013-04-28 05:25:00,
2013-04-28 00:35:00,66.0,63.3,29.96,ESE,104,1.0,1.0,91,0.00,,,0.00,Wunderground v.1.15,2013-04-28 05:35:00,
2013-04-28 00:40:00,66.0,63.3,29.95,ESE,104,0.0,0.0,91,0.00,,,0.00,Wunderground v.1.15,2013-04-28 05:40:00,
2013-04-28 00:50:00,65.8,63.1,29.94,ESE,104,0.0,0.0,91,0.00,,,0.00,Wunderground v.1.15,2013-04-28 05:50:00,
2013-04-28 00:55:00,65.8,63.1,29.94,ESE,104,0.0,0.0,91,0.00,,,0.00,Wunderground v.1.15,2013-04-28 05:55:00,
2013-04-28 01:05:00,65.8,63.1,29.93,ESE,104,0.0,0.0,91,0.00,,,0.00,Wunderground v.1.15,2013-04-28 06:05:00,
2013-04-28 01:10:00,65.8,63.1,29.94,ESE,104,0.0,0.0,91,0.00,,,0.00,Wunderground v.1.15,2013-04-28 06:10:00,
2013-04-28 01:20:00,65.8,63.1,29.93,ESE,104,1.0,3.0,91,0.00,,,0.00,Wunderground v.1.15,2013-04-28 06:20:00,
2013-04-28 01:25:00,65.8,63.1,29.93,ESE,104,1.0,3.0,91,0.00,,,0.00,Wunderground v.1.15,2013-04-28 06:25:00,
2013-04-28 01:35:00,65.5,62.5,29.94,ESE,104,0.0,0.0,90,0.00,,,0.00,Wunderground v.1.15,2013-04-28 06:35:00,
2013-04-28 01:40:00,65.5,62.8,29.94,ESE,104,0.0,0.0,91,0.00,,,0.00,Wunderground v.1.15,2013-04-28 06:40:00,
2013-04-28 01:50:00,65.3,62.6,29.95,ESE,104,0.0,0.0,91,0.00,,,0.00,Wunderground v.1.15,2013-04-28 06:50:00,
2013-04-28 01:55:00,65.5,62.8,29.95,ESE,104,0.0,0.0,91,0.00,,,0.00,Wunderground v.1.15,2013-04-28 06:55:00,
2013-04-28 02:05:00,65.5,62.8,29.94,ESE,104,0.0,0.0,91,0.00,,,0.00,Wunderground v.1.15,2013-04-28 07:05:00,
2013-04-28 02:10:00,65.5,62.8,29.94,ESE,104,0.0,0.0,91,0.00,,,0.00,Wunderground v.1.15,2013-04-28 07:10:00,
2013-04-28 02:20:00,65.5,62.8,29.94,ESE,104,0.0,0.0,91,0.00,,,0.00,Wunderground v.1.15,2013-04-28 07:20:00,
2013-04-28 02:25:00,65.5,62.5,29.94,ESE,104,1.0,2.0,90,0.00,,,0.00,Wunderground v.1.15,2013-04-28 07:25:00,
2013-04-28 02:35:00,65.5,62.5,29.94,ESE,104,2.0,2.0,90,0.00,,,0.00,Wunderground v.1.15,2013-04-28 07:35:00,
2013-04-28 02:40:00,65.5,62.5,29.94,ESE,104,0.0,2.0,90,0.00,,,0.00,Wunderground v.1.15,2013-04-28 07:40:00,
2013-04-28 02:50:00,65.5,62.2,29.94,ESE,104,1.0,2.0,89,0.00,,,0.00,Wunderground v.1.15,2013-04-28 07:50:00,
2013-04-28 02:55:00,65.5,62.2,29.93,ESE,104,1.0,2.0,89,0.00,,,0.00,Wunderground v.1.15,2013-04-28 07:55:00,
2013-04-28 03:05:00,65.5,62.2,29.93,ESE,104,0.0,0.0,89,0.00,,,0.00,Wunderground v.1.15,2013-04-28 08:05:00,
2013-04-28 03:10:00,65.3,62.0,29.93,ESE,104,0.0,0.0,89,0.00,,,0.00,Wunderground v.1.15,2013-04-28 08:10:00,
2013-04-28 03:20:00,65.3,62.3,29.93,ESE,104,0.0,0.0,90,0.00,,,0.00,Wunderground v.1.15,2013-04-28 08:20:00,
2013-04-28 03:25:00,65.2,62.2,29.93,ESE,104,0.0,0.0,90,0.00,,,0.00,Wunderground v.1.15,2013-04-28 08:25:00,
2013-04-28 03:35:00,65.2,62.2,29.93,ESE,104,0.0,0.0,90,0.00,,,0.00,Wunderground v.1.15,2013-04-28 08:35:00,
2013-04-28 03:40:00,65.2,62.5,29.93,ESE,104,0.0,0.0,91,0.00,,,0.00,Wunderground v.1.15,2013-04-28 08:40:00,
2013-04-28 03:50:00,65.0,62.3,29.93,ESE,104,0.0,0.0,91,0.00,,,0.00,Wunderground v.1.15,2013-04-28 08:50:00,
2013-04-28 03:55:00,65.0,62.3,29.93,ESE,104,0.0,0.0,91,0.00,,,0.00,Wunderground v.1.15,2013-04-28 08:55:00,
2013-04-28 04:05:00,65.0,62.3,29.94,ESE,104,0.0,0.0,91,0.00,,,0.00,Wunderground v.1.15,2013-04-28 09:05:00,
2013-04-28 04:10:00,64.8,62.1,29.94,ESE,104,0.0,0.0,91,0.00,,,0.00,Wunderground v.1.15,2013-04-28 09:10:00,
2013-04-28 04:20:00,64.8,62.4,29.94,ESE,104,0.0,0.0,92,0.00,,,0.00,Wunderground v.1.15,2013-04-28 09:20:00,
2013-04-28 04:25:00,64.8,62.4,29.94,ESE,104,0.0,0.0,92,0.00,,,0.00,Wunderground v.1.15,2013-04-28 09:25:00,
2013-04-28 04:35:00,64.7,62.3,29.94,ESE,104,0.0,0.0,92,0.00,,,0.00,Wunderground v.1.15,2013-04-28 09:35:00,
2013-04-28 04:40:00,64.7,62.3,29.93,ESE,104,0.0,0.0,92,0.00,,,0.00,Wunderground v.1.15,2013-04-28 09:40:00,
2013-04-28 04:50:00,64.5,61.8,29.93,ESE,104,0.0,0.0,91,0.00,,,0.00,Wunderground v.1.15,2013-04-28 09:50:00,
2013-04-28 04:55:00,64.2,61.2,29.93,ESE,104,0.0,0.0,90,0.00,,,0.00,Wunderground v.1.15,2013-04-28 09:55:00,
2013-04-28 05:05:00,63.5,60.5,29.93,ESE,104,0.0,0.0,90,0.00,,,0.00,Wunderground v.1.15,2013-04-28 10:05:00,
2013-04-28 05:10:00,63.2,60.2,29.94,ESE,104,0.0,0.0,90,0.00,,,0.00,Wunderground v.1.15,2013-04-28 10:10:00,
2013-04-28 05:20:00,62.6,59.3,29.93,ESE,104,0.0,0.0,89,0.00,,,0.00,Wunderground v.1.15,2013-04-28 10:20:00,
2013-04-28 05:25:00,62.3,59.0,29.93,ESE,104,0.0,0.0,89,0.00,,,0.00,Wunderground v.1.15,2013-04-28 10:25:00,
2013-04-28 05:35:00,61.8,58.5,29.93,ESE,104,0.0,0.0,89,0.00,,,0.00,Wunderground v.1.15,2013-04-28 10:35:00,
2013-04-28 05:40:00,61.3,58.0,29.93,ESE,104,0.0,0.0,89,0.00,,,0.00,Wunderground v.1.15,2013-04-28 10:40:00,
2013-04-28 05:50:00,60.5,57.2,29.94,ESE,104,0.0,0.0,89,0.00,,,0.00,Wunderground v.1.15,2013-04-28 10:50:00,
2013-04-28 05:55:00,60.2,56.9,29.94,ESE,104,0.0,0.0,89,0.00,,,0.00,Wunderground v.1.15,2013-04-28 10:55:00,
2013-04-28 06:05:00,59.8,56.6,29.94,ESE,104,0.0,0.0,89,0.00,,,0.00,Wunderground v.1.15,2013-04-28 11:05:00,
2013-04-28 06:10:00,59.5,56.6,29.94,ESE,104,0.0,0.0,90,0.00,,,0.00,Wunderground v.1.15,2013-04-28 11:10:00,
2013-04-28 06:20:00,58.9,56.0,29.94,ESE,104,0.0,0.0,90,0.00,,,0.00,Wunderground v.1.15,2013-04-28 11:20:00,
2013-04-28 06:25:00,58.7,55.8,29.94,ESE,104,0.0,0.0,90,0.00,,,0.00,Wunderground v.1.15,2013-04-28 11:25:00,
2013-04-28 06:35:00,58.4,55.8,29.95,ESE,104,0.0,0.0,91,0.00,,,0.00,Wunderground v.1.15,2013-04-28 11:35:00,
2013-04-28 06:40:00,58.3,56.0,29.95,ESE,104,0.0,0.0,92,0.00,,,0.00,Wunderground v.1.15,2013-04-28 11:40:00,
2013-04-28 06:50:00,58.1,55.8,29.95,ESE,104,0.0,0.0,92,0.00,,,0.00,Wunderground v.1.15,2013-04-28 11:50:00,
2013-04-28 06:55:00,58.1,55.8,29.95,ESE,104,0.0,0.0,92,0.00,,,0.00,Wunderground v.1.15,2013-04-28 11:55:00,
2013-04-28 07:05:00,58.3,56.3,29.96,ESE,104,0.0,0.0,93,0.00,,,0.00,Wunderground v.1.15,2013-04-28 12:05:00,
2013-04-28 07:10:00,58.3,56.3,29.96,ESE,104,0.0,0.0,93,0.00,,,0.00,Wunderground v.1.15,2013-04-28 12:10:00,
2013-04-28 07:20:00,59.3,57.9,29.95,ESE,104,0.0,0.0,95,0.00,,,0.00,Wunderground v.1.15,2013-04-28 12:20:00,
2013-04-28 07:25:00,60.4,60.4,29.95,ESE,104,1.0,1.0,100,0.00,,,0.00,Wunderground v.1.15,2013-04-28 12:25:00,
2013-04-28 07:35:00,61.3,61.3,29.95,ESE,104,0.0,1.0,100,0.00,,,0.00,Wunderground v.1.15,2013-04-28 12:35:00,
2013-04-28 07:40:00,62.0,62.0,29.95,ESE,104,0.0,0.0,100,0.00,,,0.00,Wunderground v.1.15,2013-04-28 12:40:00,
2013-04-28 07:50:00,62.3,62.3,29.95,ESE,104,0.0,0.0,100,0.00,,,0.00,Wunderground v.1.15,2013-04-28 12:50:00,
2013-04-28 07:55:00,62.4,62.4,29.95,ESE,104,0.0,0.0,100,0.00,,,0.00,Wunderground v.1.15,2013-04-28 12:55:00,
2013-04-28 08:05:00,62.9,62.9,29.95,ESE,104,0.0,0.0,100,0.00,,,0.00,Wunderground v.1.15,2013-04-28 13:05:00,
2013-04-28 08:10:00,63.1,63.1,29.95,ESE,104,0.0,0.0,100,0.00,,,0.00,Wunderground v.1.15,2013-04-28 13:10:00,
2013-04-28 08:20:00,63.4,63.4,29.95,ESE,104,0.0,0.0,100,0.00,,,0.00,Wunderground v.1.15,2013-04-28 13:20:00,
2013-04-28 08:25:00,63.7,63.7,29.94,ESE,104,0.0,0.0,100,0.00,,,0.00,Wunderground v.1.15,2013-04-28 13:25:00,
2013-04-28 08:35:00,64.3,64.3,29.94,ESE,104,1.0,1.0,100,0.00,,,0.00,Wunderground v.1.15,2013-04-28 13:35:00,
2013-04-28 08:40:00,64.7,64.7,29.94,ESE,104,1.0,1.0,100,0.00,,,0.00,Wunderground v.1.15,2013-04-28 13:40:00,
2013-04-28 08:50:00,65.8,63.7,29.94,ESE,104,0.0,1.0,93,0.00,,,0.00,Wunderground v.1.15,2013-04-28 13:50:00,
2013-04-28 08:55:00,66.4,63.1,29.94,ESE,104,1.0,2.0,89,0.00,,,0.00,Wunderground v.1.15,2013-04-28 13:55:00,
2013-04-28 09:05:00,67.8,62.1,29.94,ESE,104,1.0,1.0,82,0.00,,,0.00,Wunderground v.1.15,2013-04-28 14:05:00,
2013-04-28 09:10:00,68.3,61.9,29.94,ESE,104,1.0,1.0,80,0.00,,,0.00,Wunderground v.1.15,2013-04-28 14:10:00,
2013-04-28 09:20:00,70.3,61.2,29.94,ESE,104,0.0,0.0,73,0.00,,,0.00,Wunderground v.1.15,2013-04-28 14:20:00,
2013-04-28 09:25:00,71.1,59.6,29.94,ESE,104,1.0,2.0,67,0.00,,,0.00,Wunderground v.1.15,2013-04-28 14:25:00,
2013-04-28 09:35:00,72.0,59.6,29.94,ESE,104,1.0,1.0,65,0.00,,,0.00,Wunderground v.1.15,2013-04-28 14:35:00,
2013-04-28 09:40:00,72.7,60.3,29.94,ESE,104,0.0,0.0,65,0.00,,,0.00,Wunderground v.1.15,2013-04-28 14:40:00,
2013-04-28 09:50:00,73.5,58.8,29.94,ESE,104,0.0,0.0,60,0.00,,,0.00,Wunderground v.1.15,2013-04-28 14:50:00,
2013-04-28 09:55:00,73.9,60.1,29.94,ESE,104,0.0,0.0,62,0.00,,,0.00,Wunderground v.1.15,2013-04-28 14:55:00,
2013-04-28 10:05:00,74.7,58.9,29.94,ESE,104,1.0,4.0,58,0.00,,,0.00,Wunderground v.1.15,2013-04-28 15:05:00,
2013-04-28 10:10:00,75.1,60.7,29.94,ESE,104,1.0,1.0,61,0.00,,,0.00,Wunderground v.1.15,2013-04-28 15:10:00,
2013-04-28 10:20:00,75.4,60.1,29.94,ESE,104,1.0,3.0,59,0.00,,,0.00,Wunderground v.1.15,2013-04-28 15:20:00,
2013-04-28 10:25:00,75.8,60.0,29.94,ESE,104,1.0,3.0,58,0.00,,,0.00,Wunderground v.1.15,2013-04-28 15:25:00,
2013-04-28 10:35:00,75.3,59.0,29.94,ESE,104,1.0,1.0,57,0.00,,,0.00,Wunderground v.1.15,2013-04-28 15:35:00,
2013-04-28 10:40:00,75.8,60.0,29.94,ESE,104,1.0,1.0,58,0.00,,,0.00,Wunderground v.1.15,2013-04-28 15:40:00,
2013-04-28 10:50:00,76.5,59.6,29.93,ESE,104,1.0,1.0,56,0.00,,,0.00,Wunderground v.1.15,2013-04-28 15:50:00,
2013-04-28 10:55:00,76.7,60.3,29.93,ESE,104,0.0,1.0,57,0.00,,,0.00,Wunderground v.1.15,2013-04-28 15:55:00,
2013-04-28 11:05:00,77.6,58.6,29.93,ESE,104,1.0,1.0,52,0.00,,,0.00,Wunderground v.1.15,2013-04-28 16:05:00,
2013-04-28 11:10:00,77.9,58.9,29.93,ESE,104,0.0,0.0,52,0.00,,,0.00,Wunderground v.1.15,2013-04-28 16:10:00,
2013-04-28 11:20:00,78.6,60.0,29.93,ESE,104,1.0,1.0,53,0.00,,,0.00,Wunderground v.1.15,2013-04-28 16:20:00,
2013-04-28 11:25:00,79.2,59.5,29.93,ESE,104,1.0,1.0,51,0.00,,,0.00,Wunderground v.1.15,2013-04-28 16:25:00,
2013-04-28 11:35:00,79.6,59.3,29.92,ESE,104,2.0,5.0,50,0.00,,,0.00,Wunderground v.1.15,2013-04-28 16:35:00,
2013-04-28 11:40:00,79.6,59.9,29.92,ESE,104,2.0,3.0,51,0.00,,,0.00,Wunderground v.1.15,2013-04-28 16:40:00,
2013-04-28 11:50:00,79.9,60.2,29.92,ESE,104,3.0,3.0,51,0.00,,,0.00,Wunderground v.1.15,2013-04-28 16:50:00,
2013-04-28 11:55:00,80.3,60.5,29.92,ESE,104,2.0,3.0,51,0.00,,,0.00,Wunderground v.1.15,2013-04-28 16:55:00,
2013-04-28 12:05:00,80.7,60.9,29.92,ESE,104,3.0,3.0,51,0.13,,,0.02,Wunderground v.1.15,2013-04-28 17:05:00,
2013-04-28 12:10:00,81.1,60.1,29.92,ESE,104,1.0,5.0,49,0.06,,,0.02,Wunderground v.1.15,2013-04-28 17:10:00,
2013-04-28 12:20:00,81.1,61.3,29.91,ESE,104,2.0,2.0,51,0.00,,,0.02,Wunderground v.1.15,2013-04-28 17:20:00,
2013-04-28 12:25:00,81.2,61.4,29.91,ESE,104,1.0,2.0,51,0.00,,,0.02,Wunderground v.1.15,2013-04-28 17:25:00,
2013-04-28 12:35:00,80.7,60.3,29.90,ESE,113,2.0,2.0,50,0.00,,,0.02,Wunderground v.1.15,2013-04-28 17:35:00,
2013-04-28 12:40:00,80.9,61.1,29.90,ESE,113,3.0,3.0,51,0.00,,,0.02,Wunderground v.1.15,2013-04-28 17:40:00,
2013-04-28 12:50:00,81.4,59.8,29.90,ESE,120,4.0,4.0,48,0.00,,,0.02,Wunderground v.1.15,2013-04-28 17:50:00,
2013-04-28 12:55:00,81.4,61.0,29.90,SE,124,3.0,4.0,50,0.00,,,0.02,Wunderground v.1.15,2013-04-28 17:55:00,
2013-04-28 13:05:00,81.2,60.8,29.91,SE,128,2.0,7.0,50,0.00,,,0.02,Wunderground v.1.15,2013-04-28 18:05:00,
2013-04-28 13:10:00,80.9,60.5,29.91,SE,127,3.0,3.0,50,0.00,,,0.02,Wunderground v.1.15,2013-04-28 18:10:00,
2013-04-28 13:20:00,82.0,59.2,29.90,SE,137,4.0,4.0,46,0.00,,,0.02,Wunderground v.1.15,2013-04-28 18:20:00,
2013-04-28 13:25:00,82.6,59.7,29.90,SE,137,2.0,4.0,46,0.00,,,0.02,Wunderground v.1.15,2013-04-28 18:25:00,
2013-04-28 13:35:00,82.2,59.4,29.90,SE,138,2.0,7.0,46,0.00,,,0.02,Wunderground v.1.15,2013-04-28 18:35:00,
2013-04-28 13:40:00,82.4,59.5,29.90,South,186,3.0,3.0,46,0.00,,,0.02,Wunderground v.1.15,2013-04-28 18:40:00,
2013-04-28 13:50:00,83.2,59.0,29.89,South,186,3.0,7.0,44,0.00,,,0.02,Wunderground v.1.15,2013-04-28 18:50:00,
2013-04-28 13:55:00,83.2,59.0,29.89,South,188,4.0,7.0,44,0.00,,,0.02,Wunderground v.1.15,2013-04-28 18:55:00,
2013-04-28 14:05:00,82.2,58.1,29.89,South,186,4.0,5.0,44,0.00,,,0.02,Wunderground v.1.15,2013-04-28 19:05:00,
2013-04-28 14:10:00,83.4,59.2,29.89,South,186,2.0,11.0,44,0.00,,,0.02,Wunderground v.1.15,2013-04-28 19:10:00,
2013-04-28 14:20:00,83.8,59.6,29.88,South,185,4.0,4.0,44,0.00,,,0.02,Wunderground v.1.15,2013-04-28 19:20:00,
2013-04-28 14:25:00,83.2,59.6,29.88,South,185,2.0,4.0,45,0.00,,,0.02,Wunderground v.1.15,2013-04-28 19:25:00,
2013-04-28 14:35:00,83.2,59.0,29.87,South,185,1.0,3.0,44,0.00,,,0.02,Wunderground v.1.15,2013-04-28 19:35:00,
2013-04-28 14:40:00,82.8,59.3,29.87,South,185,3.0,10.0,45,0.00,,,0.02,Wunderground v.1.15,2013-04-28 19:40:00,
2013-04-28 14:50:00,83.8,58.3,29.86,South,176,3.0,7.0,42,0.00,,,0.02,Wunderground v.1.15,2013-04-28 19:50:00,
2013-04-28 14:55:00,83.8,58.3,29.86,South,172,2.0,8.0,42,0.00,,,0.02,Wunderground v.1.15,2013-04-28 19:55:00,
2013-04-28 15:05:00,84.3,58.7,29.86,South,174,3.0,3.0,42,0.00,,,0.02,Wunderground v.1.15,2013-04-28 20:05:00,
2013-04-28 15:10:00,84.5,58.2,29.85,South,169,1.0,2.0,41,0.00,,,0.02,Wunderground v.1.15,2013-04-28 20:10:00,
2013-04-28 15:20:00,84.7,58.4,29.84,South,169,1.0,6.0,41,0.00,,,0.02,Wunderground v.1.15,2013-04-28 20:20:00,
2013-04-28 15:25:00,84.9,57.9,29.84,South,169,1.0,6.0,40,0.00,,,0.02,Wunderground v.1.15,2013-04-28 20:25:00,
2013-04-28 15:35:00,85.1,58.8,29.83,SSE,168,1.0,2.0,41,0.00,,,0.02,Wunderground v.1.15,2013-04-28 20:35:00,
2013-04-28 15:40:00,85.5,57.7,29.83,SSE,168,1.0,1.0,39,0.00,,,0.02,Wunderground v.1.15,2013-04-28 20:40:00,
2013-04-28 15:50:00,85.9,57.3,29.82,SSE,168,0.0,0.0,38,0.00,,,0.02,Wunderground v.1.15,2013-04-28 20:50:00,
2013-04-28 15:55:00,85.5,57.7,29.82,SSE,167,1.0,1.0,39,0.00,,,0.02,Wunderground v.1.15,2013-04-28 20:55:00,
2013-04-28 16:05:00,85.9,57.3,29.81,SSE,167,1.0,3.0,38,0.00,,,0.02,Wunderground v.1.15,2013-04-28 21:05:00,
2013-04-28 16:10:00,85.5,57.0,29.81,SSE,167,1.0,3.0,38,0.00,,,0.02,Wunderground v.1.15,2013-04-28 21:10:00,
2013-04-28 16:20:00,85.3,56.8,29.81,SSE,167,1.0,1.0,38,0.00,,,0.02,Wunderground v.1.15,2013-04-28 21:20:00,
2013-04-28 16:25:00,84.9,57.2,29.80,SSE,167,0.0,1.0,39,0.00,,,0.02,Wunderground v.1.15,2013-04-28 21:25:00,
2013-04-28 16:35:00,84.3,57.3,29.80,SSE,167,0.0,0.0,40,0.00,,,0.02,Wunderground v.1.15,2013-04-28 21:35:00,
2013-04-28 16:40:00,84.1,57.2,29.79,SSE,167,0.0,0.0,40,0.00,,,0.02,Wunderground v.1.15,2013-04-28 21:40:00,
2013-04-28 16:50:00,84.1,57.2,29.79,SSE,165,1.0,1.0,40,0.00,,,0.02,Wunderground v.1.15,2013-04-28 21:50:00,
2013-04-28 16:55:00,83.8,56.2,29.79,SSE,165,1.0,1.0,39,0.00,,,0.02,Wunderground v.1.15,2013-04-28 21:55:00,
2013-04-28 17:05:00,83.4,55.8,29.80,SSE,165,1.0,1.0,39,0.00,,,0.02,Wunderground v.1.15,2013-04-28 22:05:00,
2013-04-28 17:10:00,83.0,55.5,29.79,SSE,165,1.0,1.0,39,0.00,,,0.02,Wunderground v.1.15,2013-04-28 22:10:00,
2013-04-28 17:20:00,82.6,55.8,29.79,SSE,162,2.0,5.0,40,0.00,,,0.02,Wunderground v.1.15,2013-04-28 22:20:00,
2013-04-28 17:25:00,82.6,55.8,29.79,SSE,160,3.0,5.0,40,0.00,,,0.02,Wunderground v.1.15,2013-04-28 22:25:00,
2013-04-28 17:35:00,82.4,55.7,29.79,SSE,158,1.0,2.0,40,0.00,,,0.02,Wunderground v.1.15,2013-04-28 22:35:00,
2013-04-28 17:40:00,82.2,55.5,29.79,SSE,158,1.0,1.0,40,0.00,,,0.02,Wunderground v.1.15,2013-04-28 22:40:00,
2013-04-28 17:50:00,82.0,55.3,29.79,SSE,158,1.0,1.0,40,0.00,,,0.02,Wunderground v.1.15,2013-04-28 22:50:00,
2013-04-28 17:55:00,81.8,55.8,29.79,SSE,154,1.0,1.0,41,0.00,,,0.02,Wunderground v.1.15,2013-04-28 22:55:00,
2013-04-28 18:05:00,81.6,56.3,29.79,SSE,151,2.0,2.0,42,0.00,,,0.02,Wunderground v.1.15,2013-04-28 23:05:00,
2013-04-28 18:10:00,81.6,56.9,29.79,SSE,151,1.0,1.0,43,0.00,,,0.02,Wunderground v.1.15,2013-04-28 23:10:00,
2013-04-28 18:20:00,81.2,56.6,29.79,SSE,148,1.0,1.0,43,0.00,,,0.02,Wunderground v.1.15,2013-04-28 23:20:00,
2013-04-28 18:25:00,81.1,56.5,29.79,SE,145,3.0,11.0,43,0.00,,,0.02,Wunderground v.1.15,2013-04-28 23:25:00,
2013-04-28 18:35:00,80.7,54.8,29.79,SE,143,4.0,4.0,41,0.00,,,0.02,Wunderground v.1.15,2013-04-28 23:35:00,
2013-04-28 18:40:00,80.5,55.3,29.79,SE,143,4.0,6.0,42,0.00,,,0.02,Wunderground v.1.15,2013-04-28 23:40:00,
2013-04-28 18:50:00,80.1,54.9,29.79,SE,127,4.0,4.0,42,0.00,,,0.02,Wunderground v.1.15,2013-04-28 23:50:00,
2013-04-28 18:55:00,79.9,56.0,29.79,SE,127,4.0,4.0,44,0.00,,,0.02,Wunderground v.1.15,2013-04-28 23:55:00,
2013-04-28 19:05:00,79.6,56.4,29.79,SE,126,3.0,3.0,45,0.00,,,0.02,Wunderground v.1.15,2013-04-29 00:05:00,
2013-04-28 19:10:00,79.2,56.0,29.79,SE,126,2.0,2.0,45,0.00,,,0.02,Wunderground v.1.15,2013-04-29 00:10:00,
2013-04-28 19:20:00,78.5,56.0,29.80,SE,126,1.0,1.0,46,0.00,,,0.02,Wunderground v.1.15,2013-04-29 00:20:00,
2013-04-28 19:25:00,78.3,56.4,29.80,SE,126,1.0,1.0,47,0.00,,,0.02,Wunderground v.1.15,2013-04-29 00:25:00,
2013-04-28 19:35:00,77.7,57.0,29.80,SE,126,0.0,0.0,49,0.00,,,0.02,Wunderground v.1.15,2013-04-29 00:35:00,
2013-04-28 19:40:00,77.6,56.9,29.80,SE,126,1.0,1.0,49,0.00,,,0.02,Wunderground v.1.15,2013-04-29 00:40:00,
2013-04-28 19:50:00,77.0,56.4,29.81,SE,126,0.0,0.0,49,0.00,,,0.02,Wunderground v.1.15,2013-04-29 00:50:00,
2013-04-28 19:55:00,76.7,56.7,29.81,SE,126,0.0,0.0,50,0.00,,,0.02,Wunderground v.1.15,2013-04-29 00:55:00,
2013-04-28 20:05:00,76.0,56.6,29.82,SE,126,0.0,0.0,51,0.00,,,0.02,Wunderground v.1.15,2013-04-29 01:05:00,
2013-04-28 20:10:00,75.8,57.4,29.82,SE,126,1.0,1.0,53,0.00,,,0.02,Wunderground v.1.15,2013-04-29 01:10:00,
2013-04-28 20:20:00,75.3,58.0,29.82,SE,126,0.0,2.0,55,0.00,,,0.02,Wunderground v.1.15,2013-04-29 01:20:00,
2013-04-28 20:25:00,74.9,58.1,29.82,SE,126,1.0,5.0,56,0.00,,,0.02,Wunderground v.1.15,2013-04-29 01:25:00,
2013-04-28 20:35:00,74.4,58.7,29.83,SE,126,1.0,2.0,58,0.00,,,0.02,Wunderground v.1.15,2013-04-29 01:35:00,
2013-04-28 20:40:00,74.2,58.9,29.83,SE,126,1.0,1.0,59,0.00,,,0.02,Wunderground v.1.15,2013-04-29 01:40:00,
2013-04-28 20:50:00,73.7,58.9,29.84,SE,126,0.0,0.0,60,0.00,,,0.02,Wunderground v.1.15,2013-04-29 01:50:00,
2013-04-28 20:55:00,73.3,59.0,29.84,SE,126,1.0,1.0,61,0.00,,,0.02,Wunderground v.1.15,2013-04-29 01:55:00,
2013-04-28 21:05:00,73.0,58.8,29.83,SE,126,2.0,6.0,61,0.00,,,0.02,Wunderground v.1.15,2013-04-29 02:05:00,
2013-04-28 21:10:00,72.7,58.9,29.84,SE,126,1.0,1.0,62,0.00,,,0.02,Wunderground v.1.15,2013-04-29 02:10:00,
2013-04-28 21:20:00,72.5,59.2,29.84,SE,126,1.0,1.0,63,0.00,,,0.02,Wunderground v.1.15,2013-04-29 02:20:00,
2013-04-28 21:25:00,72.3,59.0,29.85,SE,126,0.0,6.0,63,0.00,,,0.02,Wunderground v.1.15,2013-04-29 02:25:00,
2013-04-28 21:35:00,71.8,59.4,29.85,SE,126,1.0,6.0,65,0.00,,,0.02,Wunderground v.1.15,2013-04-29 02:35:00,
2013-04-28 21:40:00,71.6,59.2,29.85,SE,126,1.0,3.0,65,0.00,,,0.02,Wunderground v.1.15,2013-04-29 02:40:00,
2013-04-28 21:50:00,71.3,59.8,29.86,SE,126,1.0,1.0,67,0.00,,,0.02,Wunderground v.1.15,2013-04-29 02:50:00,
2013-04-28 21:55:00,71.1,60.0,29.86,SE,127,1.0,1.0,68,0.00,,,0.02,Wunderground v.1.15,2013-04-29 02:55:00,
2013-04-28 22:05:00,70.9,60.2,29.86,SE,127,0.0,2.0,69,0.00,,,0.02,Wunderground v.1.15,2013-04-29 03:05:00,
2013-04-28 22:10:00,70.8,60.1,29.86,SE,127,0.0,0.0,69,0.00,,,0.02,Wunderground v.1.15,2013-04-29 03:10:00,
2013-04-28 22:20:00,70.4,60.5,29.86,SE,127,1.0,3.0,71,0.00,,,0.02,Wunderground v.1.15,2013-04-29 03:20:00,
2013-04-28 22:25:00,70.3,60.4,29.87,SE,127,2.0,3.0,71,0.00,,,0.02,Wunderground v.1.15,2013-04-29 03:25:00,
2013-04-28 22:35:00,70.1,60.7,29.87,SE,127,1.0,1.0,72,0.00,,,0.02,Wunderground v.1.15,2013-04-29 03:35:00,
2013-04-28 22:40:00,69.9,60.8,29.87,SE,127,1.0,1.0,73,0.00,,,0.02,Wunderground v.1.15,2013-04-29 03:40:00,
2013-04-28 22:50:00,69.6,60.9,29.87,SE,127,1.0,1.0,74,0.00,,,0.02,Wunderground v.1.15,2013-04-29 03:50:00,
2013-04-28 22:55:00,69.4,61.1,29.87,SE,127,0.0,1.0,75,0.00,,,0.02,Wunderground v.1.15,2013-04-29 03:55:00,
2013-04-28 23:05:00,69.3,61.4,29.87,SE,127,0.0,0.0,76,0.00,,,0.02,Wunderground v.1.15,2013-04-29 04:05:00,
2013-04-28 23:10:00,69.1,61.2,29.87,SE,127,1.0,1.0,76,0.00,,,0.02,Wunderground v.1.15,2013-04-29 04:10:00,
2013-04-28 23:20:00,68.9,61.4,29.87,SE,127,0.0,0.0,77,0.00,,,0.02,Wunderground v.1.15,2013-04-29 04:20:00,
2013-04-28 23:25:00,68.8,61.3,29.87,SE,127,0.0,0.0,77,0.00,,,0.02,Wunderground v.1.15,2013-04-29 04:25:00,
2013-04-28 23:30:00,68.6,61.5,29.87,SE,127,0.0,0.0,78,0.00,,,0.02,Wunderground v.1.15,2013-04-29 04:30:00,
2013-04-28 23:35:00,68.4,61.6,29.87,SE,127,0.0,0.0,79,0.00,,,0.02,Wunderground v.1.15,2013-04-29 04:35:00,
2013-04-28 23:40:00,68.3,61.9,29.87,SE,127,0.0,0.0,80,0.00,,,0.02,Wunderground v.1.15,2013-04-29 04:40:00,
2013-04-28 23:50:00,67.9,61.5,29.87,SE,127,0.0,0.0,80,0.00,,,0.02,Wunderground v.1.15,2013-04-29 04:50:00,
2013-04-28 23:55:00,67.8,61.8,29.87,SE,127,0.0,0.0,81,0.00,,,0.02,Wunderground v.1.15,2013-04-29 04:55:00,